Airfield :
LOGIN :

Register | Disclaimer

   EN    FR    IT 

 










Legend :    VFR   Marginal VFR   IFR   Intensive IFR   Very Intensive IFR
Visi :
Ceiling :
>= 8 km
>= 3000ft
5 to 8 km
1000 to 3000 ft
1500m to 5 km
500 to 1000 ft
800 to 1500m
200 to 500 ft
< 800m
< 200 ft
Symbols :   Thunderstorms  Fog  Heavy snow  Heavy precipitations  Wind > 20 kt
SIGMETs :     Misc.  Thunderstorms  Icing  Turbulence  Mountain Waves  Volcanic Ashes







- Airport Elevation : 1910 ft
- IATA code : RDZ
- Download approach charts


LFCR - Rodez

CURRENT METAR :
  • 180730Z AUTO 26010KT 9000 BKN006 BKN010 BKN022 05/04 Q1022 TEMPO 4000 -DZRA BKN004

EXPIRED METARs :
  • 180700Z AUTO 26008KT 7000 -DZ BKN010 BKN016 OVC026 05/04 Q1022 TEMPO 4000 -DZRA BKN004
  • 180630Z AUTO 25008KT 9999 FEW006 SCT011 OVC027 05/04 Q1022 TEMPO 4000 -DZRA BKN004
  • 180600Z AUTO 26010KT 9999 OVC005 05/04 Q1022 TEMPO 4000 -DZRA
  • 180530Z AUTO 26009KT 6000 -DZ BKN007 OVC032 05/04 Q1022 TEMPO 4000 -DZRA BKN004
  • 180500Z AUTO 27008KT 9999 OVC007 04/04 Q1022 TEMPO BKN004

TAF TAF LFCR
Valid from the 18 at 06:00 until the 19 at 06:00 UTC


180500Z 1806/1906 26012KT 9999 BKN008
TEMPO 1806/1906 4000 -DZRA BKN004
PROB40
TEMPO 1812/1904 2000 RA OVC002
No reported NOTAMs for that airfield.
1 SIGMET reported for the Bordeaux FIR (LFBB) :
 
Severe turbulence
LFBB SIGMET 2 VALID 180600/180900 LFPW
LFBB BORDEAUX FIR/UIR SEV TURB FCST NE OF LINE N4345 E00245 - N4715 E00130 SFC/FL080 STNR NC=



MET'MAP, your aeronautical weather chart ! - Copyright ORBIFLY December 2007 - Disclaimer

ORBIFLY MET'MAP TEAM :

Programming & Development : Alexandra Zaïnal
Concept & Development : Baudouin d'Aumeries
Co-Development & Prog : Marc-Olivier Méhu
Technical & hardware support : Manuel Goepfert

Contact : metmap@orbifly.com




SOURCES & CREDITS :

   NOAA